Time;durP1;ratioP1;P1;durP2;ratioP2;P2;SDS_P1;SDS_P2;PMS_P1;PMS_P2;Temp;Humidity;BMP_temperature;BMP_pressure;BME280_temperature;BME280_humidity;BME280_pressure;Samples;Min_cycle;Max_cycle;Signal;HPM_P1;HPM_P2
2023/08/26 00:00:07;;;;;;;69.72;53.00;;;18.60;95.20;;;;;;5099515;28;20174;-91
2023/08/26 00:02:33;;;;;;;66.72;54.40;;;18.60;95.30;;;;;;5099935;28;20646;-91
2023/08/26 00:04:58;;;;;;;70.18;57.25;;;18.70;95.30;;;;;;5099430;28;20215;-91
2023/08/26 00:07:24;;;;;;;71.95;64.05;;;18.60;95.30;;;;;;5098271;28;20175;-91
2023/08/26 00:09:50;;;;;;;83.20;66.47;;;18.50;95.40;;;;;;5096263;28;20292;-91
2023/08/26 00:12:16;;;;;;;82.57;58.03;;;18.60;95.40;;;;;;5077003;28;20236;-91
2023/08/26 00:14:42;;;;;;;70.63;55.55;;;18.60;95.50;;;;;;5093736;28;20637;-91
2023/08/26 00:17:07;;;;;;;75.45;55.33;;;18.60;95.50;;;;;;5077105;28;20183;-91
2023/08/26 00:19:33;;;;;;;67.10;52.45;;;18.60;95.50;;;;;;5094070;28;20176;-91
2023/08/26 00:22:00;;;;;;;71.63;55.20;;;18.60;95.50;;;;;;5075936;28;20204;-91
2023/08/26 00:24:26;;;;;;;71.45;53.40;;;18.60;95.60;;;;;;5093602;28;20281;-91
2023/08/26 00:26:51;;;;;;;69.30;53.60;;;18.60;95.60;;;;;;5093681;28;20206;-91
2023/08/26 00:29:17;;;;;;;70.57;52.22;;;18.70;95.60;;;;;;5093551;28;20174;-91
2023/08/26 00:31:43;;;;;;;57.60;48.20;;;18.70;95.60;;;;;;5093376;28;20661;-91
2023/08/26 00:34:08;;;;;;;66.22;49.08;;;18.70;95.60;;;;;;5093422;28;20175;-91
2023/08/26 00:36:34;;;;;;;64.47;49.22;;;18.70;95.60;;;;;;5094338;28;20289;-91
2023/08/26 00:39:00;;;;;;;73.53;50.50;;;18.70;95.60;;;;;;5093233;28;20171;-91
2023/08/26 00:41:26;;;;;;;59.67;48.20;;;18.70;95.60;;;;;;5093672;28;20178;-91
2023/08/26 00:43:51;;;;;;;58.85;48.42;;;18.70;95.60;;;;;;5093449;28;20171;-92
2023/08/26 00:46:17;;;;;;;60.00;47.55;;;18.70;95.60;;;;;;5094058;28;20236;-91
2023/08/26 00:48:43;;;;;;;61.72;49.40;;;18.70;95.60;;;;;;5093630;28;20174;-92
2023/08/26 00:51:10;;;;;;;66.28;50.88;;;18.60;95.50;;;;;;5093255;28;20173;-91
2023/08/26 00:53:36;;;;;;;62.65;49.35;;;18.60;95.60;;;;;;5092965;28;20752;-91
2023/08/26 00:56:02;;;;;;;69.15;49.88;;;18.70;95.60;;;;;;5092962;28;20214;-91
2023/08/26 00:58:30;;;;;;;64.45;51.13;;;18.60;95.60;;;;;;5093112;28;20268;-92
2023/08/26 01:00:56;;;;;;;68.70;51.47;;;18.60;95.50;;;;;;5093297;28;20634;-91
2023/08/26 01:03:22;;;;;;;71.13;53.30;;;18.50;95.60;;;;;;5093894;28;20178;-91
2023/08/26 01:05:48;;;;;;;71.07;53.58;;;18.60;95.60;;;;;;5092824;28;20206;-91
2023/08/26 01:08:13;;;;;;;76.30;55.60;;;18.60;95.60;;;;;;5092982;28;20174;-91
2023/08/26 01:11:20;;;;;;;74.28;56.38;;;18.50;95.60;;;;;;5092895;28;20166;-91
2023/08/26 01:13:58;;;;;;;73.85;55.42;;;18.50;95.60;;;;;;5092365;28;20183;-91
2023/08/26 01:16:24;;;;;;;80.20;55.63;;;18.50;95.60;;;;;;5092763;28;20194;-91
2023/08/26 01:18:51;;;;;;;82.50;58.53;;;18.50;95.70;;;;;;5093511;28;20265;-91
2023/08/26 01:21:19;;;;;;;89.90;60.15;;;18.50;95.70;;;;;;5092680;28;20255;-91
2023/08/26 01:23:46;;;;;;;87.85;60.78;;;18.50;95.70;;;;;;5092685;28;20174;-91
2023/08/26 01:26:11;;;;;;;90.22;59.42;;;18.50;95.70;;;;;;5092800;28;20756;-91
2023/08/26 01:28:37;;;;;;;90.47;60.30;;;18.50;95.80;;;;;;5092458;28;20194;-91
2023/08/26 01:31:09;;;;;;;91.50;60.58;;;18.50;95.80;;;;;;5092741;28;20170;-91
2023/08/26 01:33:44;;;;;;;93.07;61.15;;;18.50;95.80;;;;;;5092085;28;20220;-91
2023/08/26 01:36:17;;;;;;;89.93;60.10;;;18.50;95.80;;;;;;5092783;28;20294;-91
2023/08/26 01:38:44;;;;;;;95.50;62.35;;;18.50;95.80;;;;;;5092779;28;20173;-92
2023/08/26 01:41:14;;;;;;;100.63;63.90;;;18.60;95.90;;;;;;5092370;28;20175;-91
2023/08/26 01:43:40;;;;;;;95.85;64.03;;;18.50;95.90;;;;;;5092335;28;20181;-91
2023/08/26 01:46:05;;;;;;;100.85;64.93;;;18.60;95.90;;;;;;5092155;28;20289;-91
2023/08/26 01:48:31;;;;;;;97.35;63.60;;;18.50;95.90;;;;;;5093040;28;20578;-92
2023/08/26 01:50:57;;;;;;;90.95;63.08;;;18.60;95.90;;;;;;5092223;28;20190;-91
2023/08/26 01:53:22;;;;;;;90.72;63.42;;;18.60;96.00;;;;;;5092541;28;20167;-91
2023/08/26 01:55:48;;;;;;;97.95;63.58;;;18.60;96.00;;;;;;5091935;28;20210;-91
2023/08/26 01:58:13;;;;;;;104.03;66.00;;;18.60;96.00;;;;;;5092422;28;20911;-91
2023/08/26 02:00:39;;;;;;;95.85;61.13;;;18.60;95.90;;;;;;5092037;28;20658;-91
2023/08/26 02:03:04;;;;;;;88.82;60.55;;;18.60;96.00;;;;;;5092195;28;20182;-91
2023/08/26 02:05:30;;;;;;;81.35;57.42;;;18.50;95.90;;;;;;5092451;28;20292;-91
2023/08/26 02:07:55;;;;;;;81.70;57.85;;;18.60;96.00;;;;;;5092047;28;20170;-91
2023/08/26 02:10:21;;;;;;;90.18;61.97;;;18.50;96.00;;;;;;5092080;28;20673;-92
2023/08/26 02:12:46;;;;;;;95.25;61.65;;;18.50;95.90;;;;;;5092141;28;20214;-91
2023/08/26 02:15:12;;;;;;;92.88;61.70;;;18.50;96.00;;;;;;5091878;28;20225;-91
2023/08/26 02:17:38;;;;;;;90.47;62.45;;;18.60;96.00;;;;;;5092060;28;20179;-91
2023/08/26 02:20:04;;;;;;;95.65;64.43;;;18.60;96.00;;;;;;5091980;28;20186;-91
2023/08/26 02:22:30;;;;;;;97.20;64.20;;;18.50;96.00;;;;;;5092266;28;20179;-92
2023/08/26 02:24:55;;;;;;;99.47;66.07;;;18.60;96.00;;;;;;5091883;28;20297;-92
2023/08/26 02:27:21;;;;;;;99.63;67.32;;;18.60;96.00;;;;;;5091911;28;20202;-92
2023/08/26 02:29:46;;;;;;;100.95;65.88;;;18.60;96.00;;;;;;5091770;28;20179;-91
2023/08/26 02:32:13;;;;;;;111.78;69.72;;;18.60;96.00;;;;;;5092335;28;20201;-91
2023/08/26 02:34:38;;;;;;;106.20;68.70;;;18.60;96.00;;;;;;5091925;28;20198;-91
2023/08/26 02:37:04;;;;;;;109.97;70.35;;;18.60;96.00;;;;;;5091968;28;20193;-91
2023/08/26 02:39:29;;;;;;;114.32;70.05;;;18.60;96.00;;;;;;5091906;28;20182;-91
2023/08/26 02:41:55;;;;;;;107.78;68.85;;;18.60;96.00;;;;;;5091778;28;20174;-91
2023/08/26 02:44:20;;;;;;;118.05;69.30;;;18.60;96.00;;;;;;5092629;28;20207;-92
2023/08/26 02:46:46;;;;;;;108.78;67.65;;;18.60;96.10;;;;;;5096628;28;20171;-91
2023/08/26 02:49:12;;;;;;;113.57;70.03;;;18.60;96.10;;;;;;5095437;28;20657;-91
2023/08/26 02:51:37;;;;;;;117.05;69.65;;;18.50;96.10;;;;;;5095635;28;20549;-91
2023/08/26 02:54:03;;;;;;;119.97;70.32;;;18.50;96.10;;;;;;5095465;28;20177;-91
2023/08/26 02:56:28;;;;;;;120.65;70.85;;;18.50;96.10;;;;;;5095729;28;20240;-91
2023/08/26 02:58:54;;;;;;;119.10;69.53;;;18.50;96.10;;;;;;5095215;28;20182;-91
2023/08/26 03:01:20;;;;;;;120.85;69.35;;;18.50;96.20;;;;;;5095299;28;20170;-91
2023/08/26 03:03:46;;;;;;;131.02;72.78;;;18.50;96.10;;;;;;5096014;28;20197;-91
2023/08/26 03:06:11;;;;;;;129.05;72.50;;;18.50;96.20;;;;;;5094958;28;20697;-91
2023/08/26 03:08:37;;;;;;;128.95;71.53;;;18.50;96.20;;;;;;5095152;28;20175;-91
2023/08/26 03:11:04;;;;;;;119.80;64.20;;;18.50;96.20;;;;;;5095876;28;20186;-91
2023/08/26 03:13:30;;;;;;;124.47;66.55;;;18.40;96.20;;;;;;5094857;28;20174;-91
2023/08/26 03:15:57;;;;;;;118.18;65.45;;;18.30;96.20;;;;;;5094962;28;20261;-91
2023/08/26 03:18:22;;;;;;;121.30;66.30;;;18.40;96.30;;;;;;5094959;28;20179;-91
2023/08/26 03:20:48;;;;;;;123.50;63.42;;;18.30;96.30;;;;;;5094775;28;20171;-91
2023/08/26 03:23:13;;;;;;;119.05;64.88;;;18.30;96.30;;;;;;5095232;28;20178;-91
2023/08/26 03:25:43;;;;;;;125.50;65.18;;;18.30;96.40;;;;;;5095230;28;20622;-91
2023/08/26 03:28:08;;;;;;;121.18;63.13;;;18.30;96.40;;;;;;5094644;28;20217;-91
2023/08/26 03:30:35;;;;;;;119.70;62.47;;;18.30;96.40;;;;;;5094605;28;20216;-91
2023/08/26 03:33:02;;;;;;;126.07;63.63;;;18.30;96.40;;;;;;5094689;28;20167;-91
2023/08/26 03:35:28;;;;;;;117.72;62.00;;;18.30;96.40;;;;;;5094508;28;20198;-91
2023/08/26 03:37:54;;;;;;;117.40;60.05;;;18.30;96.40;;;;;;5094495;28;20192;-91
2023/08/26 03:40:22;;;;;;;113.47;60.78;;;18.30;96.40;;;;;;5077573;28;20536;-91
2023/08/26 03:42:50;;;;;;;116.70;62.67;;;18.30;96.40;;;;;;5094366;28;20265;-91
2023/08/26 03:45:16;;;;;;;115.57;64.05;;;18.20;96.30;;;;;;5094272;28;20206;-91
2023/08/26 03:47:44;;;;;;;112.30;62.45;;;18.20;96.30;;;;;;5094573;28;20167;-91
2023/08/26 03:50:10;;;;;;;113.32;63.17;;;18.20;96.30;;;;;;5094320;28;20186;-91
2023/08/26 03:52:36;;;;;;;117.82;63.03;;;18.30;96.30;;;;;;5094459;28;20542;-91
2023/08/26 03:55:04;;;;;;;116.53;59.17;;;18.20;96.20;;;;;;5093793;28;20206;-91
2023/08/26 03:57:30;;;;;;;108.28;57.00;;;18.30;96.20;;;;;;5094313;28;20183;-91
2023/08/26 03:59:55;;;;;;;111.45;59.95;;;18.30;96.20;;;;;;5077608;28;20202;-91
2023/08/26 04:02:21;;;;;;;106.90;55.55;;;18.30;96.20;;;;;;5094530;28;20213;-91
2023/08/26 04:04:46;;;;;;;100.07;56.25;;;18.30;96.10;;;;;;5093929;28;20214;-91
2023/08/26 04:07:12;;;;;;;100.50;55.95;;;18.30;96.10;;;;;;5094023;28;20167;-91
2023/08/26 04:09:38;;;;;;;91.05;54.55;;;18.30;96.10;;;;;;5094437;28;20579;-91
2023/08/26 04:12:03;;;;;;;93.40;54.63;;;18.30;96.10;;;;;;5094083;28;20209;-91
2023/08/26 04:14:29;;;;;;;97.78;54.67;;;18.20;96.10;;;;;;5093766;28;20219;-91
2023/08/26 04:16:55;;;;;;;88.60;53.55;;;18.20;96.00;;;;;;5093767;28;20213;-91
2023/08/26 04:19:20;;;;;;;92.45;54.08;;;18.30;96.00;;;;;;5093785;28;20185;-91
2023/08/26 04:21:46;;;;;;;99.50;53.40;;;18.20;96.00;;;;;;5094205;28;20579;-91
2023/08/26 04:24:12;;;;;;;91.15;51.75;;;18.20;96.00;;;;;;5093527;28;20178;-91
2023/08/26 04:26:39;;;;;;;85.43;51.83;;;18.20;96.00;;;;;;5094318;28;20167;-91
2023/08/26 04:29:04;;;;;;;85.10;51.63;;;18.20;96.00;;;;;;5093657;28;20175;-91
2023/08/26 04:31:31;;;;;;;90.97;51.92;;;18.30;96.00;;;;;;5093497;28;20178;-91
2023/08/26 04:33:57;;;;;;;87.35;51.17;;;18.20;95.90;;;;;;5076752;28;20175;-91
2023/08/26 04:36:22;;;;;;;81.85;50.45;;;18.30;95.90;;;;;;5093344;28;20190;-91
2023/08/26 04:38:48;;;;;;;90.18;52.00;;;18.30;95.90;;;;;;5093402;28;20179;-91
2023/08/26 04:41:14;;;;;;;87.13;52.85;;;18.20;95.90;;;;;;5093300;28;20269;-91
2023/08/26 04:43:40;;;;;;;84.68;49.63;;;18.20;95.90;;;;;;5093985;28;20183;-92
2023/08/26 04:46:06;;;;;;;88.97;50.72;;;18.30;95.90;;;;;;5093709;28;20234;-91
2023/08/26 04:48:55;;;;;;;88.75;50.90;;;18.30;95.90;;;;;;5093266;28;20171;-91
2023/08/26 04:51:22;;;;;;;80.82;49.63;;;18.30;95.80;;;;;;5092970;28;20174;-91
2023/08/26 04:53:48;;;;;;;76.40;49.65;;;18.30;95.80;;;;;;5092964;28;20180;-92
2023/08/26 04:56:15;;;;;;;79.03;49.45;;;18.30;95.80;;;;;;5093203;28;20214;-91
2023/08/26 04:58:40;;;;;;;80.95;52.22;;;18.30;95.80;;;;;;5076430;28;20183;-91
2023/08/26 05:01:06;;;;;;;80.03;52.00;;;18.20;95.70;;;;;;5092829;28;20170;-90
2023/08/26 05:03:31;;;;;;;78.78;53.78;;;18.20;95.60;;;;;;5093289;28;20212;-90
2023/08/26 05:05:57;;;;;;;80.97;52.53;;;18.30;95.60;;;;;;5092950;28;20207;-90
2023/08/26 05:08:23;;;;;;;74.65;53.50;;;18.20;95.60;;;;;;5092458;28;20649;-90
2023/08/26 05:10:48;;;;;;;76.70;53.15;;;18.20;95.50;;;;;;5092754;28;20718;-90
2023/08/26 05:13:14;;;;;;;76.55;51.88;;;18.30;95.50;;;;;;5092815;28;20669;-90
2023/08/26 05:15:39;;;;;;;75.95;51.85;;;18.30;95.50;;;;;;5093446;28;20194;-90
2023/08/26 05:18:05;;;;;;;71.60;49.15;;;18.30;95.50;;;;;;5092813;28;20231;-90
2023/08/26 05:20:30;;;;;;;69.68;48.53;;;18.30;95.40;;;;;;5092775;28;20170;-90
2023/08/26 05:22:56;;;;;;;71.38;48.47;;;18.20;95.40;;;;;;5093039;28;20185;-91
2023/08/26 05:25:22;;;;;;;68.22;48.35;;;18.20;95.40;;;;;;5092830;28;20233;-91
2023/08/26 05:27:48;;;;;;;65.18;45.60;;;18.20;95.30;;;;;;5093136;28;20187;-91
2023/08/26 05:30:13;;;;;;;63.22;46.95;;;18.20;95.20;;;;;;5092472;28;20192;-91
2023/08/26 05:32:39;;;;;;;63.17;45.28;;;18.10;95.00;;;;;;5092615;28;20166;-92
2023/08/26 05:35:05;;;;;;;66.13;46.13;;;18.10;94.90;;;;;;5094970;28;20194;-90
2023/08/26 05:37:31;;;;;;;57.85;46.33;;;18.10;94.90;;;;;;5093122;28;20186;-91
2023/08/26 05:39:56;;;;;;;59.72;42.53;;;18.10;94.70;;;;;;5092338;28;20582;-90
2023/08/26 05:42:22;;;;;;;51.63;44.05;;;18.00;94.40;;;;;;5092358;28;20190;-91
2023/08/26 05:44:48;;;;;;;55.90;43.97;;;18.00;94.30;;;;;;5092083;28;20210;-91
2023/08/26 05:47:15;;;;;;;54.40;42.60;;;18.00;94.30;;;;;;5092136;28;20171;-91
2023/08/26 05:49:47;;;;;;;49.95;43.78;;;18.00;94.30;;;;;;5093568;28;20246;-91
2023/08/26 05:52:12;;;;;;;50.60;42.20;;;18.00;94.10;;;;;;5092746;28;20209;-91
2023/08/26 05:55:10;;;;;;;47.58;40.80;;;18.00;94.10;;;;;;5092820;28;20634;-91
2023/08/26 05:57:36;;;;;;;48.58;41.17;;;17.90;93.80;;;;;;5092756;28;20257;-91
2023/08/26 06:00:02;;;;;;;54.88;43.13;;;18.00;93.80;;;;;;5092552;28;20178;-91
2023/08/26 06:02:29;;;;;;;48.55;41.55;;;17.90;93.70;;;;;;5092508;28;20185;-92
2023/08/26 06:04:54;;;;;;;47.10;40.78;;;17.90;93.70;;;;;;5092172;28;20214;-92
2023/08/26 06:07:45;;;;;;;45.40;39.75;;;17.90;93.70;;;;;;5092190;28;20167;-91
2023/08/26 06:10:10;;;;;;;43.83;39.00;;;17.90;93.60;;;;;;5092212;28;20159;-92
2023/08/26 06:12:36;;;;;;;45.78;40.35;;;17.80;93.40;;;;;;5093895;28;20159;-91
2023/08/26 06:15:02;;;;;;;45.67;40.80;;;17.90;93.50;;;;;;5093626;28;20194;-90
2023/08/26 06:17:28;;;;;;;52.00;44.17;;;17.80;93.20;;;;;;5097885;28;20175;-90
2023/08/26 06:19:53;;;;;;;49.13;44.13;;;17.90;93.00;;;;;;5100705;28;20162;-90
2023/08/26 06:22:19;;;;;;;43.60;39.00;;;17.80;92.80;;;;;;5102098;28;20246;-89
2023/08/26 06:24:44;;;;;;;41.63;37.08;;;17.80;92.90;;;;;;5098351;28;20274;-89
2023/08/26 06:27:10;;;;;;;39.05;34.85;;;17.80;92.90;;;;;;5099875;28;20550;-90
2023/08/26 06:29:35;;;;;;;47.67;42.83;;;17.90;93.00;;;;;;5099649;28;20620;-90
2023/08/26 06:32:01;;;;;;;46.42;41.75;;;17.90;92.90;;;;;;5099458;28;20556;-90
2023/08/26 06:34:26;;;;;;;37.13;33.08;;;17.70;92.30;;;;;;5099979;28;20190;-90
2023/08/26 06:36:52;;;;;;;39.17;34.97;;;17.80;92.70;;;;;;5099799;28;20170;-90
2023/08/26 06:39:17;;;;;;;45.88;40.95;;;17.80;92.70;;;;;;5099792;28;20174;-91
2023/08/26 06:41:43;;;;;;;45.35;41.10;;;17.80;92.40;;;;;;5099859;28;20182;-91
2023/08/26 06:44:08;;;;;;;45.58;41.03;;;17.70;92.50;;;;;;5098434;28;20171;-90
2023/08/26 06:46:34;;;;;;;34.20;30.70;;;17.80;92.30;;;;;;5099245;28;20202;-90
2023/08/26 06:48:59;;;;;;;33.10;29.67;;;17.80;92.00;;;;;;5099136;28;20202;-90
2023/08/26 06:51:25;;;;;;;34.22;29.55;;;17.80;92.10;;;;;;5099511;28;20170;-90
2023/08/26 06:53:50;;;;;;;32.17;29.02;;;17.80;91.60;;;;;;5098297;28;20178;-91
2023/08/26 06:56:16;;;;;;;32.70;29.35;;;17.90;91.60;;;;;;5099001;28;20267;-90
2023/08/26 06:58:41;;;;;;;31.83;28.70;;;17.90;91.50;;;;;;5097934;28;20182;-90
2023/08/26 07:01:07;;;;;;;31.60;28.55;;;18.00;91.50;;;;;;5099292;28;20177;-90
2023/08/26 07:03:32;;;;;;;32.25;28.92;;;18.00;91.40;;;;;;5099175;28;20174;-90
2023/08/26 07:05:58;;;;;;;29.65;26.80;;;18.10;91.40;;;;;;5098700;28;20206;-90
2023/08/26 07:08:23;;;;;;;31.52;28.45;;;17.90;90.60;;;;;;5099520;28;20183;-90
2023/08/26 07:10:49;;;;;;;30.55;27.00;;;18.00;90.70;;;;;;5099056;28;20174;-90
2023/08/26 07:13:15;;;;;;;28.42;25.90;;;18.20;90.80;;;;;;5098508;28;20175;-90
2023/08/26 07:15:40;;;;;;;28.15;25.58;;;18.20;90.30;;;;;;5098396;28;20556;-90
2023/08/26 07:18:06;;;;;;;28.20;25.73;;;18.20;89.90;;;;;;5098793;28;20174;-90
2023/08/26 07:20:32;;;;;;;28.38;25.25;;;18.20;90.00;;;;;;5098991;28;20175;-90
2023/08/26 07:22:57;;;;;;;28.48;24.23;;;18.30;90.10;;;;;;5098268;28;20197;-90
2023/08/26 07:25:23;;;;;;;25.08;22.73;;;18.20;89.60;;;;;;5097873;28;20213;-90
2023/08/26 07:27:49;;;;;;;26.00;23.33;;;18.20;89.60;;;;;;5098431;28;20171;-90
2023/08/26 07:30:17;;;;;;;25.15;22.73;;;18.30;89.60;;;;;;5096592;28;20175;-90
2023/08/26 07:32:43;;;;;;;23.02;21.02;;;18.20;89.00;;;;;;5098884;28;20173;-90
2023/08/26 07:35:09;;;;;;;24.77;22.58;;;18.30;88.90;;;;;;5098227;28;20190;-90
2023/08/26 07:37:35;;;;;;;22.52;20.23;;;18.30;88.90;;;;;;5098024;28;20178;-90
2023/08/26 07:40:01;;;;;;;23.95;21.92;;;18.40;88.50;;;;;;5098464;28;20178;-90
2023/08/26 07:42:27;;;;;;;23.92;21.83;;;18.30;88.40;;;;;;5098956;28;20784;-91
2023/08/26 07:44:53;;;;;;;23.00;20.95;;;18.50;88.70;;;;;;5097799;28;20226;-90
2023/08/26 07:47:20;;;;;;;21.80;20.00;;;18.50;88.40;;;;;;5098526;28;20166;-90
2023/08/26 07:49:46;;;;;;;21.60;19.67;;;18.40;86.90;;;;;;5098159;28;20173;-90
2023/08/26 07:52:13;;;;;;;22.00;20.08;;;18.30;86.80;;;;;;5098368;28;20171;-90
2023/08/26 07:54:38;;;;;;;20.58;18.95;;;18.40;86.40;;;;;;5098571;28;20214;-91
2023/08/26 07:57:04;;;;;;;19.83;18.25;;;18.50;86.10;;;;;;5098526;28;20193;-90
2023/08/26 07:59:29;;;;;;;20.02;18.33;;;18.80;86.00;;;;;;5097695;28;20555;-90
2023/08/26 08:01:55;;;;;;;20.27;18.67;;;18.90;85.40;;;;;;5098626;28;20661;-90
2023/08/26 08:04:20;;;;;;;23.77;21.42;;;18.90;84.30;;;;;;5097185;28;20179;-90
2023/08/26 08:06:46;;;;;;;23.17;21.17;;;18.80;82.00;;;;;;5097324;28;20174;-90
2023/08/26 08:09:12;;;;;;;21.73;20.10;;;18.70;81.40;;;;;;5098629;28;20174;-90
2023/08/26 08:11:37;;;;;;;20.00;18.17;;;18.60;82.60;;;;;;5097845;28;20537;-90
2023/08/26 08:14:03;;;;;;;21.90;20.05;;;18.80;83.80;;;;;;5096803;28;20661;-90
2023/08/26 08:16:29;;;;;;;22.75;20.88;;;18.80;81.90;;;;;;5097615;28;20191;-89
2023/08/26 08:18:54;;;;;;;22.25;20.10;;;18.80;80.70;;;;;;5097439;28;20174;-90
2023/08/26 08:21:20;;;;;;;19.70;18.10;;;18.90;81.90;;;;;;5097202;28;20630;-90
2023/08/26 08:23:45;;;;;;;21.80;19.90;;;19.10;81.50;;;;;;5096741;28;20249;-90
2023/08/26 08:26:11;;;;;;;20.45;18.98;;;19.10;80.20;;;;;;5097462;28;20255;-90
2023/08/26 08:28:37;;;;;;;21.02;19.42;;;19.10;81.20;;;;;;5097256;28;20177;-90
2023/08/26 08:31:02;;;;;;;22.38;20.55;;;18.80;80.30;;;;;;5096614;28;20229;-90
2023/08/26 08:33:29;;;;;;;21.48;19.77;;;18.60;80.20;;;;;;5096574;28;20183;-90
2023/08/26 08:35:55;;;;;;;20.75;19.15;;;18.60;80.90;;;;;;5096250;28;20199;-90
2023/08/26 08:38:21;;;;;;;20.40;18.85;;;18.60;81.80;;;;;;5096967;28;20276;-90
2023/08/26 08:40:47;;;;;;;18.90;17.38;;;18.50;81.70;;;;;;5095795;28;20200;-90
2023/08/26 08:43:15;;;;;;;20.00;17.90;;;18.70;82.50;;;;;;5095115;28;20174;-90
2023/08/26 08:45:42;;;;;;;19.58;18.00;;;18.60;82.40;;;;;;5095324;28;20215;-90
2023/08/26 08:48:08;;;;;;;20.48;18.38;;;18.50;81.80;;;;;;5096507;28;20224;-90
2023/08/26 08:50:34;;;;;;;18.95;17.45;;;18.50;82.10;;;;;;5096881;28;20171;-90
2023/08/26 08:53:02;;;;;;;20.52;18.83;;;18.50;82.00;;;;;;5096107;28;20588;-90
2023/08/26 08:55:29;;;;;;;18.67;17.25;;;18.60;80.80;;;;;;5095796;28;20194;-90
2023/08/26 08:57:56;;;;;;;19.45;17.85;;;18.60;81.40;;;;;;5095977;28;20159;-90
2023/08/26 09:00:23;;;;;;;18.77;17.25;;;18.70;80.40;;;;;;5095663;28;20231;-90
2023/08/26 09:02:52;;;;;;;19.77;17.83;;;18.80;79.20;;;;;;5095980;28;20163;-90
2023/08/26 09:05:18;;;;;;;18.85;17.38;;;18.80;78.10;;;;;;5095559;28;20221;-90
2023/08/26 09:07:46;;;;;;;20.48;18.88;;;19.00;79.50;;;;;;5095396;28;20248;-90
2023/08/26 09:10:11;;;;;;;19.00;17.60;;;18.90;76.70;;;;;;5095847;28;20169;-90
2023/08/26 09:12:38;;;;;;;18.52;17.08;;;18.80;79.30;;;;;;5096272;28;20175;-90
2023/08/26 09:15:04;;;;;;;19.30;17.88;;;19.20;79.20;;;;;;5095797;28;20278;-90
2023/08/26 09:17:30;;;;;;;18.52;17.33;;;19.40;78.30;;;;;;5097203;28;20240;-90
2023/08/26 09:20:00;;;;;;;19.80;18.30;;;19.50;78.30;;;;;;5096579;28;20191;-90
2023/08/26 09:22:31;;;;;;;20.20;18.58;;;19.60;75.90;;;;;;5095653;28;20171;-90
2023/08/26 09:24:58;;;;;;;19.67;18.27;;;19.50;76.70;;;;;;5096279;28;20213;-90
2023/08/26 09:27:24;;;;;;;20.13;18.60;;;19.60;76.50;;;;;;5095267;28;20524;-90
2023/08/26 09:29:50;;;;;;;20.90;19.38;;;19.70;76.40;;;;;;5096499;28;20223;-89
2023/08/26 09:32:37;;;;;;;21.50;19.98;;;19.70;75.50;;;;;;5095050;28;20171;-90
2023/08/26 09:35:09;;;;;;;22.05;20.20;;;19.60;74.90;;;;;;5096071;28;20219;-90
2023/08/26 09:37:35;;;;;;;21.67;20.00;;;19.40;75.30;;;;;;5094409;28;20186;-89
2023/08/26 09:40:00;;;;;;;22.65;20.98;;;19.70;75.50;;;;;;5095945;28;20166;-90
2023/08/26 09:42:26;;;;;;;21.33;19.92;;;19.80;73.70;;;;;;5095585;28;20171;-89
2023/08/26 09:44:55;;;;;;;22.05;20.25;;;19.90;74.30;;;;;;5094664;28;20317;-89
2023/08/26 09:47:21;;;;;;;22.92;21.02;;;19.80;73.10;;;;;;5095625;28;20189;-89
2023/08/26 09:49:50;;;;;;;23.13;21.30;;;19.90;73.70;;;;;;5097257;28;20254;-90
2023/08/26 09:52:15;;;;;;;22.23;20.17;;;20.00;71.20;;;;;;5096560;28;20224;-90
2023/08/26 09:54:44;;;;;;;21.10;19.42;;;20.20;72.70;;;;;;5098421;28;20195;-90
2023/08/26 09:57:09;;;;;;;20.73;19.27;;;20.30;72.70;;;;;;5096696;28;20217;-90
2023/08/26 09:59:35;;;;;;;20.80;19.25;;;20.30;72.10;;;;;;5096909;28;20178;-90
2023/08/26 10:02:07;;;;;;;20.45;18.95;;;20.30;72.10;;;;;;5096072;28;20170;-90
2023/08/26 10:04:36;;;;;;;21.23;19.05;;;20.20;72.40;;;;;;5096720;28;20724;-90
2023/08/26 10:07:02;;;;;;;19.23;18.02;;;20.20;71.90;;;;;;5096818;28;20163;-90
2023/08/26 10:09:37;;;;;;;20.73;19.33;;;20.10;70.00;;;;;;5096716;28;20220;-90
2023/08/26 10:12:05;;;;;;;19.92;18.63;;;19.70;69.40;;;;;;5098118;28;20523;-90
2023/08/26 10:14:33;;;;;;;19.83;18.08;;;19.70;70.60;;;;;;5096527;28;20625;-90
2023/08/26 10:17:01;;;;;;;18.70;17.40;;;19.90;71.10;;;;;;5096882;28;20230;-89
2023/08/26 10:19:29;;;;;;;17.95;16.75;;;19.90;71.30;;;;;;5096632;28;20235;-90
2023/08/26 10:21:56;;;;;;;19.23;17.77;;;20.10;72.80;;;;;;5096327;28;20174;-90
2023/08/26 10:24:21;;;;;;;19.15;17.65;;;20.00;71.30;;;;;;5095211;28;20252;-89
2023/08/26 10:26:48;;;;;;;19.00;17.77;;;20.00;71.90;;;;;;5096011;28;20630;-90
2023/08/26 10:29:14;;;;;;;20.25;18.70;;;19.70;71.80;;;;;;5095231;28;20643;-90
2023/08/26 10:31:42;;;;;;;19.20;18.00;;;19.70;70.50;;;;;;5097066;28;20230;-89
2023/08/26 10:34:07;;;;;;;18.45;17.23;;;19.50;72.50;;;;;;5096157;28;20528;-89
2023/08/26 10:36:34;;;;;;;19.98;18.65;;;19.40;73.50;;;;;;5097101;28;20197;-89
2023/08/26 10:39:00;;;;;;;18.63;17.23;;;19.30;72.10;;;;;;5095121;28;20562;-89
2023/08/26 10:41:26;;;;;;;19.23;17.70;;;19.50;73.60;;;;;;5094507;28;20175;-89
2023/08/26 10:44:01;;;;;;;18.88;17.58;;;19.50;71.80;;;;;;5095748;28;20170;-89
2023/08/26 10:46:56;;;;;;;19.10;17.70;;;19.70;72.00;;;;;;5095210;28;20224;-89
2023/08/26 10:49:28;;;;;;;19.15;17.55;;;19.90;70.10;;;;;;5094921;28;20512;-89
2023/08/26 10:52:18;;;;;;;19.10;17.63;;;19.60;70.80;;;;;;5095843;28;20170;-89
2023/08/26 10:54:45;;;;;;;18.60;17.30;;;19.60;72.00;;;;;;5094941;28;20252;-89
2023/08/26 10:57:11;;;;;;;18.48;16.73;;;19.60;71.40;;;;;;5094111;28;20198;-89
2023/08/26 10:59:39;;;;;;;17.90;16.58;;;19.50;72.60;;;;;;5095533;28;20217;-89
2023/08/26 11:02:07;;;;;;;17.70;16.40;;;19.60;73.00;;;;;;5096015;28;20182;-89
2023/08/26 11:04:41;;;;;;;18.50;17.30;;;19.50;73.40;;;;;;5095838;28;20648;-89
2023/08/26 11:07:07;;;;;;;19.08;17.63;;;19.60;71.60;;;;;;5097258;28;20170;-89
2023/08/26 11:09:32;;;;;;;19.15;17.55;;;19.70;71.20;;;;;;5099298;28;20665;-89
2023/08/26 11:11:58;;;;;;;18.85;17.60;;;19.60;71.50;;;;;;5097720;28;20178;-89
2023/08/26 11:14:31;;;;;;;19.08;17.67;;;19.50;71.20;;;;;;5096999;28;20178;-89
2023/08/26 11:16:59;;;;;;;18.77;17.48;;;19.60;70.80;;;;;;5097401;28;20202;-89
2023/08/26 11:19:25;;;;;;;18.23;16.90;;;19.60;71.20;;;;;;5096941;28;20171;-89
2023/08/26 11:21:51;;;;;;;18.93;17.57;;;19.60;71.20;;;;;;5097758;28;20189;-89
2023/08/26 11:24:16;;;;;;;17.95;16.50;;;19.60;71.70;;;;;;5098227;28;20194;-89
2023/08/26 11:26:48;;;;;;;17.63;16.10;;;19.70;71.70;;;;;;5096746;28;20634;-89
2023/08/26 11:29:14;;;;;;;17.00;15.80;;;19.70;71.90;;;;;;5098143;28;20261;-89
2023/08/26 11:31:40;;;;;;;17.08;15.73;;;19.60;73.10;;;;;;5098464;28;20174;-89
2023/08/26 11:34:05;;;;;;;17.50;16.25;;;19.80;73.50;;;;;;5097885;28;20166;-89
2023/08/26 11:36:31;;;;;;;18.77;17.48;;;19.90;71.50;;;;;;5097387;28;20575;-89
2023/08/26 11:38:56;;;;;;;17.63;16.52;;;19.80;69.60;;;;;;5098840;28;20178;-89
2023/08/26 11:41:22;;;;;;;18.38;16.98;;;19.70;72.30;;;;;;5099172;28;20167;-89
2023/08/26 11:43:47;;;;;;;18.13;16.75;;;19.80;71.20;;;;;;5099142;28;20700;-89
2023/08/26 11:46:13;;;;;;;18.33;17.02;;;19.90;72.30;;;;;;5096679;28;20244;-89
2023/08/26 11:48:40;;;;;;;18.63;17.08;;;19.80;71.00;;;;;;5096645;28;20174;-89
2023/08/26 11:51:06;;;;;;;17.98;16.67;;;19.70;70.90;;;;;;5098595;28;20201;-89
2023/08/26 11:53:32;;;;;;;17.60;16.35;;;19.60;71.00;;;;;;5099254;28;20175;-89
2023/08/26 11:55:57;;;;;;;17.95;16.65;;;20.00;71.60;;;;;;5099378;28;20269;-89
2023/08/26 11:58:25;;;;;;;18.67;17.15;;;20.20;71.20;;;;;;5098134;28;20389;-90
2023/08/26 12:00:51;;;;;;;19.20;17.73;;;20.10;69.80;;;;;;5098096;28;20585;-89
2023/08/26 12:03:17;;;;;;;18.88;17.58;;;20.10;68.30;;;;;;5098033;28;20175;-89
2023/08/26 12:05:48;;;;;;;19.10;17.80;;;19.70;69.00;;;;;;5097497;28;20248;-89
2023/08/26 12:08:19;;;;;;;19.70;18.20;;;19.90;67.80;;;;;;5097470;28;20539;-89
2023/08/26 12:10:49;;;;;;;18.27;16.80;;;20.20;68.50;;;;;;5096104;28;20595;-89
2023/08/26 12:13:15;;;;;;;19.25;17.85;;;20.50;69.60;;;;;;5097075;28;20243;-89
2023/08/26 12:15:42;;;;;;;19.67;18.27;;;20.20;66.50;;;;;;5097713;28;20703;-89
2023/08/26 12:18:11;;;;;;;18.67;17.38;;;20.30;68.50;;;;;;5098101;28;20642;-89
2023/08/26 12:20:38;;;;;;;18.27;16.98;;;20.40;69.50;;;;;;5096271;28;20185;-89
2023/08/26 12:23:07;;;;;;;19.38;18.08;;;20.50;68.10;;;;;;5096540;28;20178;-89